createdAt,value
2023-01-12T06:12:22.290Z,101030.37
2023-01-12T06:14:51.067Z,101028.33
2023-01-12T06:17:19.150Z,101025.73
2023-01-12T06:19:45.782Z,101022.37
2023-01-12T06:22:12.743Z,101021.98
2023-01-12T06:24:40.749Z,101018.63
2023-01-12T06:27:07.863Z,101014.98
2023-01-12T06:29:36.882Z,101011.59
2023-01-12T06:32:03.851Z,101013.88
2023-01-12T06:34:34.943Z,101013.45
2023-01-12T06:37:08.468Z,101012.64
2023-01-12T06:39:36.906Z,101014.57
2023-01-12T06:42:27.228Z,101013.21
2023-01-12T06:45:03.545Z,101015.13
2023-01-12T06:47:37.328Z,101010.28
2023-01-12T06:50:09.719Z,101003.16
2023-01-12T06:52:41.055Z,101000.78
2023-01-12T06:55:17.917Z,100993.69
2023-01-12T06:57:48.106Z,100991.86
2023-01-12T07:00:23.959Z,100989.96
2023-01-12T07:02:51.004Z,100989.56
2023-01-12T07:05:17.874Z,101000.32
2023-01-12T07:07:47.196Z,101001.63
2023-01-12T07:10:34.519Z,101008.82
2023-01-12T07:13:21.465Z,101013.86
2023-01-12T07:15:49.049Z,101016.48
2023-01-12T07:18:18.042Z,101020.38
2023-01-12T07:20:52.286Z,101015.91
2023-01-12T07:23:48.311Z,101016.73
2023-01-12T07:26:18.542Z,101021.08
2023-01-12T07:31:40.447Z,101009.45
2023-01-12T07:34:16.522Z,101003.48
2023-01-12T07:37:22.193Z,101005.66
2023-01-12T07:40:15.144Z,101004.58
2023-01-12T13:26:41.165Z,100877.97
2023-01-12T13:29:28.931Z,100872.97
2023-01-12T13:32:03.964Z,100877.95
2023-01-12T13:34:42.992Z,100880.77
2023-01-12T13:37:19.676Z,100884.83
2023-01-12T13:39:57.806Z,100885.56
2023-01-12T13:42:43.472Z,100889.23
2023-01-12T13:45:22.294Z,100885.95
2023-01-12T13:50:31.624Z,100883.92
2023-01-12T13:53:02.719Z,100885.66
2023-01-12T13:55:31.666Z,100887.09
2023-01-12T13:58:09.004Z,100887.70
2023-01-12T14:00:38.680Z,100889.64
2023-01-12T14:03:09.425Z,100885.86
2023-01-12T14:06:16.808Z,100882.61
2023-01-12T14:08:54.687Z,100881.27
2023-01-12T14:11:58.598Z,100880.86
2023-01-12T14:15:15.885Z,100883.15
2023-01-12T14:17:58.322Z,100883.23
2023-01-12T14:20:26.358Z,100890.27
2023-01-12T14:23:22.442Z,100892.57
2023-01-12T14:26:19.261Z,100886.05
2023-01-12T14:28:49.766Z,100885.56
2023-01-12T14:31:52.577Z,100885.90
2023-01-12T14:34:32.657Z,100889.61
2023-01-12T14:36:59.817Z,100890.26
2023-01-12T14:39:29.116Z,100893.38
2023-01-12T14:42:15.037Z,100895.29
2023-01-12T14:45:17.191Z,100904.39
2023-01-12T14:47:45.131Z,100903.96
2023-01-12T14:50:15.755Z,100899.17
2023-01-12T14:52:43.926Z,100901.12
2023-01-12T14:55:27.022Z,100899.50
2023-01-12T14:57:55.307Z,100901.37
2023-01-12T15:00:28.137Z,100898.88
2023-01-12T15:02:56.180Z,100899.20
2023-01-12T15:05:32.932Z,100900.14
2023-01-12T15:08:04.531Z,100900.20
2023-01-12T15:10:40.906Z,100903.65
2023-01-12T15:13:27.484Z,100905.91
2023-01-12T15:16:13.584Z,100901.96
2023-01-12T15:18:59.105Z,100901.95
2023-01-12T15:21:45.728Z,100900.95
2023-01-12T15:24:49.656Z,100903.63
2023-01-12T15:27:21.073Z,100905.44
2023-01-12T15:29:47.998Z,100906.45
2023-01-12T15:32:20.938Z,100912.09
2023-01-12T15:34:48.224Z,100910.86
2023-01-12T15:37:17.260Z,100906.09
2023-01-12T15:39:44.464Z,100904.42
2023-01-12T15:42:28.975Z,100903.33
2023-01-12T15:44:59.438Z,100905.78
2023-01-12T15:47:26.344Z,100908.86
2023-01-12T15:49:53.601Z,100903.47
2023-01-12T15:52:25.019Z,100898.29
2023-01-12T15:54:55.140Z,100898.64
2023-01-12T15:57:23.829Z,100896.54
2023-01-12T15:59:51.087Z,100899.64
2023-01-12T16:02:30.961Z,100902.63
2023-01-12T16:04:58.892Z,100897.61
2023-01-12T16:07:25.750Z,100891.86
2023-01-12T16:09:52.778Z,100893.02
2023-01-12T16:12:20.943Z,100899.89
2023-01-12T16:14:48.063Z,100896.13
2023-01-12T16:17:15.072Z,100900.29
2023-01-12T16:19:42.158Z,100898.50
2023-01-12T16:22:13.283Z,100896.47
2023-01-12T16:24:40.979Z,100901.30
2023-01-12T16:27:12.001Z,100900.06
2023-01-12T16:29:39.106Z,100899.20
2023-01-12T16:32:06.069Z,100886.10
2023-01-12T16:34:38.807Z,100885.23
2023-01-12T16:37:16.840Z,100882.95
2023-01-12T16:39:45.638Z,100880.67
2023-01-12T16:42:17.163Z,100878.19
2023-01-12T16:44:45.509Z,100876.56
2023-01-12T16:47:14.742Z,100869.02
2023-01-12T16:49:42.148Z,100863.11
2023-01-12T16:52:15.002Z,100860.96
2023-01-12T16:54:44.080Z,100862.92
